Time;durP1;ratioP1;P1;durP2;ratioP2;P2;SDS_P1;SDS_P2;PMS_P1;PMS_P2;Temp;Humidity;BMP_temperature;BMP_pressure;BME280_temperature;BME280_humidity;BME280_pressure;Samples;Min_cycle;Max_cycle;Signal;HPM_P1;HPM_P2
2023/04/09 00:01:11;;;;;;;112.83;46.47;;;5.20;99.90;;;;;;4850018;29;20259;-62
2023/04/09 00:03:41;;;;;;;101.07;45.20;;;5.20;99.90;;;;;;4848353;29;20275;-62
2023/04/09 00:06:11;;;;;;;98.63;42.83;;;5.10;99.90;;;;;;4851810;29;21324;-62
2023/04/09 00:08:39;;;;;;;116.13;46.50;;;5.10;99.90;;;;;;4853599;29;20413;-62
2023/04/09 00:11:08;;;;;;;109.47;44.80;;;5.10;99.90;;;;;;4850180;29;20231;-62
2023/04/09 00:13:36;;;;;;;100.77;46.67;;;5.00;99.90;;;;;;4853002;29;20187;-61
2023/04/09 00:16:07;;;;;;;111.77;48.73;;;5.00;99.90;;;;;;4853407;29;20730;-62
2023/04/09 00:18:35;;;;;;;111.27;48.40;;;4.90;99.90;;;;;;4848516;29;20232;-62
2023/04/09 00:21:07;;;;;;;109.57;48.50;;;4.90;99.90;;;;;;4857705;29;20602;-61
2023/04/09 00:23:35;;;;;;;120.70;50.07;;;4.90;99.90;;;;;;4855316;29;20227;-62
2023/04/09 00:26:04;;;;;;;109.83;48.47;;;4.80;99.90;;;;;;4855694;29;20227;-62
2023/04/09 00:28:32;;;;;;;133.03;53.67;;;4.80;99.90;;;;;;4856486;29;20191;-62
2023/04/09 00:31:00;;;;;;;138.60;54.90;;;4.80;99.90;;;;;;4853714;29;20290;-62
2023/04/09 00:33:29;;;;;;;125.43;51.67;;;4.80;99.90;;;;;;4847942;29;20220;-62
2023/04/09 00:35:57;;;;;;;121.57;49.33;;;4.80;99.90;;;;;;4854120;29;20287;-62
2023/04/09 00:38:27;;;;;;;116.70;51.03;;;4.80;99.90;;;;;;4850007;29;20619;-61
2023/04/09 00:40:55;;;;;;;125.33;53.07;;;4.70;99.90;;;;;;4855163;29;20283;-62
2023/04/09 00:43:23;;;;;;;135.20;53.90;;;4.70;99.90;;;;;;4856058;29;20223;-62
2023/04/09 00:45:51;;;;;;;128.23;51.83;;;4.70;99.90;;;;;;4854380;29;20227;-62
2023/04/09 00:48:21;;;;;;;121.47;50.63;;;4.70;99.90;;;;;;4852129;29;20235;-62
2023/04/09 00:50:49;;;;;;;120.37;49.67;;;4.70;99.90;;;;;;4846423;29;20271;-62
2023/04/09 00:53:18;;;;;;;124.43;51.30;;;4.60;99.90;;;;;;4852549;29;20223;-61
2023/04/09 00:55:48;;;;;;;120.83;52.33;;;4.60;99.90;;;;;;4853149;29;20508;-62
2023/04/09 00:58:16;;;;;;;120.63;47.93;;;4.50;99.90;;;;;;4849432;29;20231;-62
2023/04/09 01:00:44;;;;;;;113.80;47.87;;;4.50;99.90;;;;;;4851712;29;20243;-62
2023/04/09 01:03:13;;;;;;;102.67;47.50;;;4.40;99.90;;;;;;4854577;29;20578;-66
2023/04/09 01:05:51;;;;;;;88.17;43.83;;;4.40;99.90;;;;;;4854750;29;20223;-62
2023/04/09 01:08:30;;;;;;;87.60;43.13;;;4.40;99.90;;;;;;4855461;29;20226;-62
2023/04/09 01:11:08;;;;;;;90.53;43.27;;;4.30;99.90;;;;;;4848345;29;20255;-62
2023/04/09 01:13:47;;;;;;;85.87;43.13;;;4.30;99.90;;;;;;4853461;29;20207;-61
2023/04/09 01:16:19;;;;;;;102.13;47.03;;;4.30;99.90;;;;;;4854232;29;20651;-62
2023/04/09 01:18:54;;;;;;;83.43;42.40;;;4.30;99.90;;;;;;4853965;29;20576;-62
2023/04/09 01:21:33;;;;;;;88.90;42.57;;;4.20;99.90;;;;;;4856895;29;20259;-62
2023/04/09 01:24:17;;;;;;;87.20;43.60;;;4.20;99.90;;;;;;4860432;29;20227;-62
2023/04/09 01:26:57;;;;;;;108.50;47.40;;;4.10;99.90;;;;;;4853795;29;20275;-62
2023/04/09 01:29:30;;;;;;;118.60;50.63;;;4.10;99.90;;;;;;4856216;29;20738;-62
2023/04/09 01:32:00;;;;;;;114.97;48.97;;;4.10;99.90;;;;;;4857437;29;20231;-62
2023/04/09 01:34:30;;;;;;;107.80;47.13;;;4.10;99.90;;;;;;4850192;29;20279;-62
2023/04/09 01:37:02;;;;;;;108.47;46.70;;;4.10;99.90;;;;;;4858871;29;20231;-62
2023/04/09 01:39:31;;;;;;;99.27;46.10;;;4.00;99.90;;;;;;4854753;29;20227;-62
2023/04/09 01:42:02;;;;;;;98.47;43.73;;;4.00;99.90;;;;;;4859713;29;20302;-62
2023/04/09 01:44:33;;;;;;;84.30;41.57;;;4.00;99.90;;;;;;4854296;29;20227;-62
2023/04/09 01:47:02;;;;;;;80.97;40.17;;;4.00;99.90;;;;;;4856351;29;20227;-62
2023/04/09 01:49:31;;;;;;;80.87;37.83;;;3.90;99.90;;;;;;4856630;29;20240;-62
2023/04/09 01:52:00;;;;;;;83.10;38.70;;;3.90;99.90;;;;;;4859589;29;20234;-62
2023/04/09 01:54:28;;;;;;;67.23;36.13;;;3.80;99.90;;;;;;4858545;29;20556;-62
2023/04/09 01:56:58;;;;;;;64.23;34.23;;;3.80;99.90;;;;;;4852676;29;20571;-62
2023/04/09 01:59:26;;;;;;;59.60;34.50;;;3.80;99.90;;;;;;4857134;29;20323;-62
2023/04/09 02:02:01;;;;;;;59.97;33.70;;;3.70;99.90;;;;;;4854945;29;20272;-62
2023/04/09 02:04:33;;;;;;;60.10;34.07;;;3.70;99.90;;;;;;4856656;29;20211;-62
2023/04/09 02:07:06;;;;;;;68.20;36.10;;;3.70;99.90;;;;;;4858166;29;20242;-62
2023/04/09 02:09:36;;;;;;;65.03;35.17;;;3.70;99.90;;;;;;4853585;29;20707;-62
2023/04/09 02:12:10;;;;;;;66.07;35.97;;;3.70;99.90;;;;;;4853448;29;20227;-62
2023/04/09 02:14:40;;;;;;;63.63;34.87;;;3.70;99.90;;;;;;4851031;29;20277;-62
2023/04/09 02:17:10;;;;;;;73.20;37.10;;;3.60;99.90;;;;;;4856729;29;20242;-62
2023/04/09 02:19:39;;;;;;;73.57;37.10;;;3.60;99.90;;;;;;4855027;29;20219;-62
2023/04/09 02:22:07;;;;;;;78.40;38.90;;;3.60;99.90;;;;;;4856424;29;20196;-62
2023/04/09 02:24:36;;;;;;;80.00;39.60;;;3.60;99.90;;;;;;4857674;29;20224;-62
2023/04/09 02:27:04;;;;;;;89.97;41.13;;;3.60;99.90;;;;;;4855235;29;20276;-62
2023/04/09 02:29:33;;;;;;;83.50;39.63;;;3.60;99.90;;;;;;4853228;29;20266;-62
2023/04/09 02:32:01;;;;;;;91.40;41.13;;;3.60;99.90;;;;;;4854928;29;20258;-62
2023/04/09 02:34:31;;;;;;;89.53;42.07;;;3.60;99.90;;;;;;4855004;29;20207;-63
2023/04/09 02:36:59;;;;;;;97.97;41.60;;;3.60;99.90;;;;;;4855248;29;20227;-62
2023/04/09 02:39:30;;;;;;;92.80;42.27;;;3.60;99.90;;;;;;4839414;29;20283;-62
2023/04/09 02:41:58;;;;;;;95.63;42.37;;;3.60;99.90;;;;;;4853418;29;20275;-62
2023/04/09 02:44:26;;;;;;;101.50;43.23;;;3.60;99.90;;;;;;4856853;29;20287;-62
2023/04/09 02:46:55;;;;;;;93.87;42.10;;;3.60;99.90;;;;;;4853246;29;20598;-62
2023/04/09 02:49:25;;;;;;;95.53;43.50;;;3.60;99.90;;;;;;4856633;29;20235;-62
2023/04/09 02:51:55;;;;;;;95.90;44.17;;;3.60;99.90;;;;;;4853583;29;20235;-62
2023/04/09 02:54:23;;;;;;;107.70;45.37;;;3.60;99.90;;;;;;4856364;29;20228;-62
2023/04/09 02:56:51;;;;;;;104.47;43.70;;;3.50;99.90;;;;;;4854705;29;20272;-62
2023/04/09 02:59:19;;;;;;;103.30;45.43;;;3.50;99.90;;;;;;4853171;29;20219;-62
2023/04/09 03:01:47;;;;;;;86.17;38.90;;;3.50;99.90;;;;;;4858725;29;20584;-62
2023/04/09 03:04:15;;;;;;;97.03;40.83;;;3.50;99.90;;;;;;4837248;29;20225;-62
2023/04/09 03:06:44;;;;;;;91.77;39.43;;;3.50;99.90;;;;;;4857235;29;20227;-62
2023/04/09 03:09:13;;;;;;;86.13;40.10;;;3.50;99.90;;;;;;4859012;29;20628;-62
2023/04/09 03:11:42;;;;;;;102.37;42.93;;;3.50;99.90;;;;;;4850851;29;20252;-62
2023/04/09 03:14:10;;;;;;;103.37;43.70;;;3.50;99.90;;;;;;4855993;29;20266;-63
2023/04/09 03:16:38;;;;;;;94.57;41.43;;;3.50;99.90;;;;;;4855563;29;20199;-62
2023/04/09 03:19:06;;;;;;;87.33;40.13;;;3.40;99.90;;;;;;4857454;29;20224;-62
2023/04/09 03:21:35;;;;;;;98.47;42.17;;;3.40;99.90;;;;;;4854582;29;20251;-62
2023/04/09 03:24:03;;;;;;;95.50;42.63;;;3.40;99.90;;;;;;4854752;29;20246;-62
2023/04/09 03:26:35;;;;;;;98.47;42.43;;;3.40;99.90;;;;;;4856547;29;20227;-62
2023/04/09 03:29:03;;;;;;;98.67;43.40;;;3.40;99.90;;;;;;4849525;29;20247;-62
2023/04/09 03:31:32;;;;;;;93.70;42.43;;;3.40;99.90;;;;;;4851943;29;20284;-62
2023/04/09 03:34:00;;;;;;;102.20;43.03;;;3.30;99.90;;;;;;4857058;29;20255;-62
2023/04/09 03:36:28;;;;;;;100.23;44.50;;;3.30;99.90;;;;;;4856263;29;20695;-62
2023/04/09 03:38:57;;;;;;;103.33;43.97;;;3.30;99.90;;;;;;4857060;29;20938;-62
2023/04/09 03:41:26;;;;;;;104.07;44.47;;;3.20;99.90;;;;;;4853475;29;20274;-62
2023/04/09 03:43:56;;;;;;;100.87;43.00;;;3.20;99.90;;;;;;4850570;29;20195;-62
2023/04/09 03:46:25;;;;;;;97.83;41.80;;;3.20;99.90;;;;;;4851720;29;20247;-62
2023/04/09 03:48:53;;;;;;;92.90;41.10;;;3.20;99.90;;;;;;4852639;29;20679;-62
2023/04/09 03:51:22;;;;;;;92.53;40.93;;;3.20;99.90;;;;;;4853342;29;20227;-62
2023/04/09 03:53:50;;;;;;;86.37;38.53;;;3.20;99.90;;;;;;4855160;29;20295;-62
2023/04/09 03:56:18;;;;;;;90.93;39.67;;;3.20;99.90;;;;;;4853927;29;20622;-62
2023/04/09 03:58:47;;;;;;;80.23;37.13;;;3.10;99.90;;;;;;4847040;29;20539;-62
2023/04/09 04:01:20;;;;;;;80.20;37.57;;;3.10;99.90;;;;;;4854841;29;20235;-62
2023/04/09 04:03:48;;;;;;;71.90;35.03;;;3.10;99.90;;;;;;4851300;29;20231;-62
2023/04/09 04:06:17;;;;;;;75.30;34.43;;;3.10;99.90;;;;;;4851834;29;20276;-62
2023/04/09 04:08:45;;;;;;;84.73;36.70;;;3.10;99.90;;;;;;4850770;29;20700;-62
2023/04/09 04:11:13;;;;;;;81.20;36.70;;;3.10;99.90;;;;;;4851839;29;20231;-62
2023/04/09 04:13:41;;;;;;;87.57;38.23;;;3.10;99.90;;;;;;4837994;29;20584;-62
2023/04/09 04:16:10;;;;;;;87.30;38.60;;;3.10;99.90;;;;;;4856044;29;20200;-62
2023/04/09 04:18:40;;;;;;;83.77;38.43;;;3.00;99.90;;;;;;4853569;29;20231;-62
2023/04/09 04:21:13;;;;;;;73.10;34.17;;;3.10;99.90;;;;;;4837402;29;20220;-62
2023/04/09 04:23:41;;;;;;;73.47;34.47;;;3.10;99.90;;;;;;4849939;29;20219;-62
2023/04/09 04:26:10;;;;;;;83.83;36.33;;;3.00;99.90;;;;;;4852475;29;20240;-62
2023/04/09 04:28:39;;;;;;;86.67;38.03;;;3.00;99.90;;;;;;4850647;29;20251;-62
2023/04/09 04:31:08;;;;;;;89.10;40.23;;;3.00;99.90;;;;;;4850161;29;20607;-62
2023/04/09 04:33:37;;;;;;;95.07;40.57;;;3.00;99.90;;;;;;4850092;29;20272;-62
2023/04/09 04:36:08;;;;;;;97.13;41.60;;;3.00;99.90;;;;;;4849008;29;20228;-63
2023/04/09 04:38:37;;;;;;;101.70;42.63;;;3.00;99.90;;;;;;4848830;29;20227;-62
2023/04/09 04:41:05;;;;;;;96.33;42.37;;;3.00;99.90;;;;;;4846869;29;20261;-63
2023/04/09 04:43:34;;;;;;;89.17;39.37;;;3.00;99.90;;;;;;4848738;29;20192;-62
2023/04/09 04:46:02;;;;;;;96.30;44.47;;;3.00;99.90;;;;;;4852056;29;20723;-62
2023/04/09 04:48:31;;;;;;;102.27;43.17;;;3.00;99.90;;;;;;4853492;29;20318;-62
2023/04/09 04:51:00;;;;;;;100.83;42.97;;;3.00;99.90;;;;;;4856082;29;20244;-62
2023/04/09 04:53:30;;;;;;;92.43;42.57;;;3.00;99.90;;;;;;4859186;29;20242;-63
2023/04/09 04:55:58;;;;;;;100.47;42.40;;;3.00;99.90;;;;;;4860274;29;20246;-62
2023/04/09 04:58:27;;;;;;;98.87;42.97;;;3.10;99.90;;;;;;4860236;29;20238;-62
2023/04/09 05:00:55;;;;;;;93.17;40.97;;;3.10;99.90;;;;;;4856369;29;20295;-62
2023/04/09 05:03:23;;;;;;;91.57;39.90;;;3.10;99.90;;;;;;4856065;29;20224;-62
2023/04/09 05:05:54;;;;;;;82.67;38.13;;;3.10;99.90;;;;;;4857196;29;20312;-62
2023/04/09 05:08:23;;;;;;;85.90;37.83;;;3.10;99.90;;;;;;4858982;29;20235;-62
2023/04/09 05:10:54;;;;;;;85.43;37.43;;;3.20;99.90;;;;;;4853276;29;20232;-62
2023/04/09 05:13:23;;;;;;;85.73;39.47;;;3.10;99.90;;;;;;4850818;29;20235;-63
2023/04/09 05:15:51;;;;;;;78.33;35.93;;;3.10;99.90;;;;;;4856965;29;20620;-62
2023/04/09 05:18:20;;;;;;;83.90;36.87;;;3.20;99.90;;;;;;4851294;29;20661;-62
2023/04/09 05:20:48;;;;;;;87.17;36.03;;;3.20;99.90;;;;;;4854314;29;20739;-63
2023/04/09 05:23:16;;;;;;;75.63;35.27;;;3.30;99.90;;;;;;4861035;29;20283;-62
2023/04/09 05:25:45;;;;;;;75.27;34.87;;;3.30;99.90;;;;;;4861411;29;20307;-62
2023/04/09 05:28:15;;;;;;;76.83;36.30;;;3.40;99.90;;;;;;4859111;29;20592;-62
2023/04/09 05:30:46;;;;;;;82.10;35.40;;;3.40;99.90;;;;;;4853801;29;20280;-62
2023/04/09 05:33:15;;;;;;;76.53;35.10;;;3.50;99.90;;;;;;4859371;29;20265;-62
2023/04/09 05:35:43;;;;;;;80.07;35.83;;;3.60;99.90;;;;;;4855908;29;20311;-62
2023/04/09 05:38:13;;;;;;;68.37;35.10;;;3.60;99.90;;;;;;4858488;29;20234;-62
2023/04/09 05:40:43;;;;;;;70.23;34.77;;;3.70;99.90;;;;;;4843970;29;20204;-62
2023/04/09 05:43:12;;;;;;;76.63;36.70;;;3.90;99.90;;;;;;4857630;29;20208;-62
2023/04/09 05:45:41;;;;;;;74.80;35.87;;;4.10;99.90;;;;;;4855393;29;20228;-62
2023/04/09 05:48:09;;;;;;;76.53;37.53;;;4.30;99.90;;;;;;4857852;29;20227;-62
2023/04/09 05:50:38;;;;;;;69.27;36.73;;;4.50;99.90;;;;;;4856881;29;20232;-62
2023/04/09 05:53:22;;;;;;;72.07;36.33;;;4.70;99.90;;;;;;4856586;29;20223;-63
2023/04/09 05:55:50;;;;;;;69.30;36.03;;;4.90;99.90;;;;;;4857010;29;20199;-63
2023/04/09 05:58:18;;;;;;;67.90;36.23;;;5.10;99.90;;;;;;4856118;29;20263;-62
2023/04/09 06:00:50;;;;;;;64.93;34.57;;;5.30;99.90;;;;;;4854736;29;20355;-62
2023/04/09 06:03:19;;;;;;;63.73;34.47;;;5.40;99.90;;;;;;4841446;29;20223;-63
2023/04/09 06:05:48;;;;;;;70.03;36.33;;;5.60;99.90;;;;;;4856546;29;20235;-63
2023/04/09 06:08:16;;;;;;;68.10;37.07;;;5.70;99.90;;;;;;4852995;29;20277;-63
2023/04/09 06:10:44;;;;;;;63.00;34.60;;;5.90;99.90;;;;;;4835702;29;20248;-62
2023/04/09 06:13:13;;;;;;;71.20;37.23;;;6.00;99.90;;;;;;4854739;29;20199;-63
2023/04/09 06:15:41;;;;;;;72.70;39.20;;;6.20;99.90;;;;;;4852633;29;20687;-63
2023/04/09 06:18:11;;;;;;;73.33;38.93;;;6.30;99.90;;;;;;4856607;29;20323;-63
2023/04/09 06:20:40;;;;;;;80.43;40.03;;;6.50;99.90;;;;;;4855889;29;20280;-63
2023/04/09 06:23:08;;;;;;;80.90;42.17;;;6.70;99.90;;;;;;4852282;29;20228;-63
2023/04/09 06:25:37;;;;;;;76.13;40.03;;;7.00;99.90;;;;;;4855433;29;20227;-63
2023/04/09 06:28:05;;;;;;;81.80;45.10;;;7.20;99.90;;;;;;4854366;29;20203;-63
2023/04/09 06:30:35;;;;;;;80.37;41.93;;;7.40;99.90;;;;;;4857425;29;20227;-63
2023/04/09 06:33:04;;;;;;;71.67;39.20;;;7.70;99.90;;;;;;4845138;29;20619;-63
2023/04/09 06:35:33;;;;;;;63.03;37.23;;;8.10;99.90;;;;;;4856305;29;20254;-63
2023/04/09 06:38:01;;;;;;;66.33;35.53;;;8.20;99.90;;;;;;4853080;29;20243;-64
2023/04/09 06:40:30;;;;;;;54.23;32.87;;;8.50;99.90;;;;;;4854638;29;20200;-64
2023/04/09 06:42:58;;;;;;;56.47;33.50;;;8.70;99.90;;;;;;4848629;29;20372;-64
2023/04/09 06:45:26;;;;;;;62.93;34.03;;;9.10;99.90;;;;;;4834714;29;20310;-63
2023/04/09 06:47:55;;;;;;;62.00;34.57;;;9.40;99.90;;;;;;4851483;29;20231;-64
2023/04/09 06:50:24;;;;;;;56.57;32.17;;;9.50;99.90;;;;;;4850577;29;20227;-64
2023/04/09 06:52:54;;;;;;;57.37;32.87;;;9.70;99.90;;;;;;4847846;29;20199;-64
2023/04/09 06:55:22;;;;;;;56.77;33.00;;;9.90;99.90;;;;;;4856776;29;20203;-63
2023/04/09 06:57:50;;;;;;;58.10;33.20;;;10.40;99.90;;;;;;4857191;29;20223;-63
2023/04/09 07:00:19;;;;;;;55.53;33.20;;;10.70;99.90;;;;;;4836486;29;20260;-64
2023/04/09 07:02:47;;;;;;;56.23;31.60;;;10.80;99.90;;;;;;4854137;29;20434;-64
2023/04/09 07:05:15;;;;;;;53.43;32.23;;;10.80;99.90;;;;;;4856942;29;20234;-64
2023/04/09 07:07:44;;;;;;;60.77;33.63;;;10.50;99.90;;;;;;4854210;29;20636;-63
2023/04/09 07:10:14;;;;;;;56.77;34.07;;;10.60;99.90;;;;;;4854003;29;20207;-63
2023/04/09 07:12:42;;;;;;;54.37;32.93;;;11.00;99.90;;;;;;4853276;29;20269;-64
2023/04/09 07:15:10;;;;;;;52.23;31.03;;;11.40;99.90;;;;;;4855312;29;20250;-64
2023/04/09 07:17:39;;;;;;;53.93;31.47;;;11.80;99.90;;;;;;4855859;29;20238;-64
2023/04/09 07:20:08;;;;;;;51.97;32.13;;;12.00;99.90;;;;;;4849078;29;20227;-64
2023/04/09 07:22:36;;;;;;;53.80;32.57;;;12.30;99.90;;;;;;4853576;29;20200;-64
2023/04/09 07:25:05;;;;;;;53.33;33.80;;;12.60;99.90;;;;;;4858154;29;20276;-64
2023/04/09 07:27:35;;;;;;;57.97;33.70;;;12.80;99.90;;;;;;4856165;29;20617;-64
2023/04/09 07:30:04;;;;;;;57.30;35.50;;;13.30;99.90;;;;;;4853534;29;20286;-64
2023/04/09 07:32:32;;;;;;;59.93;34.57;;;13.40;99.90;;;;;;4857488;29;20587;-63
2023/04/09 07:35:01;;;;;;;59.40;35.67;;;13.50;99.90;;;;;;4837124;29;20236;-64
2023/04/09 07:37:29;;;;;;;56.07;34.90;;;13.80;99.90;;;;;;4853009;29;20191;-64
2023/04/09 07:39:57;;;;;;;59.17;35.87;;;14.00;99.90;;;;;;4854855;29;20235;-64
2023/04/09 07:42:25;;;;;;;60.10;36.23;;;14.20;99.90;;;;;;4852928;29;20612;-64
2023/04/09 07:44:56;;;;;;;61.20;36.13;;;14.50;99.90;;;;;;4852984;29;20276;-65
2023/04/09 07:47:24;;;;;;;64.60;37.80;;;14.60;99.90;;;;;;4850228;29;20238;-65
2023/04/09 07:49:53;;;;;;;59.67;35.50;;;14.60;99.90;;;;;;4850365;29;20194;-65
2023/04/09 07:52:21;;;;;;;58.07;33.87;;;14.70;99.90;;;;;;4853319;29;20234;-65
2023/04/09 07:54:49;;;;;;;58.20;36.23;;;14.70;99.90;;;;;;4851012;29;20231;-64
2023/04/09 07:57:17;;;;;;;54.97;32.80;;;14.90;99.90;;;;;;4849470;29;20277;-65
2023/04/09 07:59:46;;;;;;;51.60;31.73;;;15.00;99.90;;;;;;4854376;29;20694;-65
2023/04/09 08:02:16;;;;;;;50.37;31.80;;;15.00;99.90;;;;;;4846366;29;20227;-65
2023/04/09 08:04:44;;;;;;;47.43;31.63;;;15.40;99.90;;;;;;4852840;29;20622;-65
2023/04/09 08:07:13;;;;;;;48.13;30.87;;;15.70;99.90;;;;;;4853214;29;20251;-65
2023/04/09 08:09:41;;;;;;;44.30;29.07;;;16.00;99.90;;;;;;4849210;29;20292;-65
2023/04/09 08:12:09;;;;;;;48.03;31.40;;;16.20;99.90;;;;;;4850092;29;20238;-65
2023/04/09 08:14:38;;;;;;;44.47;28.97;;;16.60;99.90;;;;;;4850836;29;20715;-65
2023/04/09 08:17:06;;;;;;;45.50;30.23;;;16.70;99.90;;;;;;4848342;29;20223;-65
2023/04/09 08:19:36;;;;;;;44.13;30.07;;;16.80;99.90;;;;;;4848434;29;20223;-64
2023/04/09 08:22:07;;;;;;;44.80;30.70;;;17.00;99.90;;;;;;4850577;29;20228;-66
2023/04/09 08:24:35;;;;;;;42.60;27.43;;;17.50;99.90;;;;;;4852710;29;20674;-66
2023/04/09 08:27:04;;;;;;;45.83;31.10;;;17.80;99.90;;;;;;4848286;29;20254;-65
2023/04/09 08:29:33;;;;;;;43.37;29.53;;;17.70;99.90;;;;;;4853555;29;20351;-65
2023/04/09 08:32:01;;;;;;;44.10;29.50;;;17.70;99.90;;;;;;4852628;29;20235;-65
2023/04/09 08:34:29;;;;;;;50.03;29.37;;;17.80;99.90;;;;;;4851146;29;20754;-65
2023/04/09 08:36:59;;;;;;;45.80;28.87;;;18.10;99.90;;;;;;4850556;29;20574;-66
2023/04/09 08:39:27;;;;;;;42.63;30.27;;;18.10;99.90;;;;;;4852082;29;20228;-65
2023/04/09 08:41:58;;;;;;;42.83;29.43;;;18.20;99.90;;;;;;4850419;29;20284;-65
2023/04/09 08:44:27;;;;;;;43.10;28.70;;;18.30;99.90;;;;;;4852873;29;20233;-65
2023/04/09 08:46:55;;;;;;;42.40;28.10;;;18.40;99.90;;;;;;4847416;29;20265;-65
2023/04/09 08:49:26;;;;;;;44.53;30.20;;;18.50;99.90;;;;;;4849401;29;20205;-66
2023/04/09 08:51:55;;;;;;;40.83;29.53;;;18.70;99.90;;;;;;4850728;29;20255;-65
2023/04/09 08:54:25;;;;;;;42.00;28.27;;;18.90;99.90;;;;;;4853870;29;20227;-65
2023/04/09 08:56:55;;;;;;;42.87;29.37;;;19.10;99.90;;;;;;4849070;29;20787;-65
2023/04/09 08:59:23;;;;;;;42.73;27.63;;;19.20;99.90;;;;;;4851586;29;20728;-66
2023/04/09 09:02:07;;;;;;;40.10;26.43;;;19.50;99.90;;;;;;4849730;29;20235;-65
2023/04/09 09:04:45;;;;;;;41.23;28.90;;;19.70;99.90;;;;;;4855559;29;20677;-63
2023/04/09 09:07:14;;;;;;;39.63;28.73;;;19.50;99.90;;;;;;4851315;29;20223;-65
2023/04/09 09:09:55;;;;;;;41.30;28.87;;;19.50;99.90;;;;;;4847699;29;20243;-65
2023/04/09 09:12:41;;;;;;;37.33;26.67;;;19.50;99.90;;;;;;4846658;29;20303;-65
2023/04/09 09:15:26;;;;;;;41.73;28.20;;;19.80;99.90;;;;;;4854914;29;20264;-65
2023/04/09 09:17:56;;;;;;;39.80;28.63;;;20.00;99.90;;;;;;4853244;29;20232;-65
2023/04/09 09:20:25;;;;;;;42.17;28.83;;;20.00;99.90;;;;;;4851343;29;20243;-65
2023/04/09 09:22:55;;;;;;;39.58;28.52;;;20.00;99.90;;;;;;4853890;29;20788;-65
2023/04/09 09:25:25;;;;;;;36.67;26.38;;;20.30;99.90;;;;;;4851454;29;20203;-65
2023/04/09 09:27:54;;;;;;;41.20;27.08;;;20.50;99.90;;;;;;4853822;29;20284;-65
2023/04/09 09:30:24;;;;;;;36.92;27.63;;;20.50;99.90;;;;;;4851706;29;20226;-66
2023/04/09 09:32:53;;;;;;;40.40;27.83;;;20.60;99.90;;;;;;4852760;29;20228;-65
2023/04/09 09:35:22;;;;;;;37.63;27.05;;;20.60;99.90;;;;;;4845931;29;20232;-65
2023/04/09 09:38:03;;;;;;;34.73;24.40;;;20.40;99.90;;;;;;4853415;29;20193;-65
2023/04/09 09:40:32;;;;;;;33.08;24.42;;;20.50;99.90;;;;;;4856248;29;20288;-65
2023/04/09 09:43:01;;;;;;;30.70;22.80;;;20.50;99.90;;;;;;4852614;29;20252;-66
2023/04/09 09:45:30;;;;;;;32.27;23.83;;;20.60;99.90;;;;;;4857849;29;20228;-66
2023/04/09 09:47:58;;;;;;;36.67;22.80;;;20.50;99.90;;;;;;4858089;29;20224;-65
2023/04/09 09:50:30;;;;;;;26.02;20.15;;;20.60;99.90;;;;;;4855050;29;20759;-66
2023/04/09 09:53:03;;;;;;;32.97;23.55;;;20.90;99.90;;;;;;4854183;29;20623;-65
2023/04/09 09:55:40;;;;;;;31.42;23.02;;;21.30;99.90;;;;;;4856917;29;20201;-66
2023/04/09 09:58:15;;;;;;;33.80;23.15;;;21.40;99.90;;;;;;4854713;29;20286;-65
2023/04/09 10:00:46;;;;;;;29.65;21.48;;;21.40;99.90;;;;;;4857791;29;20248;-65
2023/04/09 10:03:19;;;;;;;32.05;22.63;;;21.80;99.90;;;;;;4854570;29;20323;-66
2023/04/09 10:05:50;;;;;;;26.75;18.75;;;22.60;99.90;;;;;;4853305;29;20229;-66
2023/04/09 10:08:19;;;;;;;26.27;18.98;;;22.40;99.90;;;;;;4859292;29;20230;-66
2023/04/09 10:10:50;;;;;;;24.50;17.48;;;22.20;99.90;;;;;;4854234;29;20198;-67
2023/04/09 10:13:25;;;;;;;25.23;18.60;;;22.40;99.90;;;;;;4855463;29;20636;-66
2023/04/09 10:15:54;;;;;;;25.35;19.70;;;22.10;99.90;;;;;;4850722;29;20592;-66
2023/04/09 10:18:23;;;;;;;23.08;17.75;;;21.70;99.90;;;;;;4843688;29;20225;-66
2023/04/09 10:20:58;;;;;;;29.55;21.00;;;21.90;99.90;;;;;;4852167;29;20218;-66
2023/04/09 10:23:33;;;;;;;26.95;19.45;;;22.30;99.90;;;;;;4850118;29;20648;-66
2023/04/09 10:26:05;;;;;;;25.73;19.55;;;22.80;99.90;;;;;;4850604;29;20230;-66
2023/04/09 10:28:33;;;;;;;27.80;20.33;;;23.00;99.90;;;;;;4851532;29;20979;-66
2023/04/09 10:31:01;;;;;;;26.88;20.08;;;22.70;99.90;;;;;;4852702;29;20224;-65
2023/04/09 10:33:29;;;;;;;25.35;19.38;;;22.70;99.90;;;;;;4835483;29;20592;-66
2023/04/09 10:36:01;;;;;;;25.77;19.45;;;23.00;99.90;;;;;;4856070;29;20228;-66
2023/04/09 10:38:37;;;;;;;23.25;18.73;;;23.10;99.90;;;;;;4858953;29;20228;-66
2023/04/09 10:41:15;;;;;;;31.70;22.25;;;23.00;99.90;;;;;;4850760;29;20798;-66
2023/04/09 10:43:43;;;;;;;33.30;22.27;;;22.80;99.90;;;;;;4857296;29;20555;-65
2023/04/09 10:46:28;;;;;;;26.48;20.02;;;22.80;99.90;;;;;;4850119;29;20230;-66
2023/04/09 10:49:11;;;;;;;27.92;19.40;;;22.90;99.90;;;;;;4852465;29;20704;-65
2023/04/09 10:51:40;;;;;;;27.88;18.95;;;23.50;99.90;;;;;;4851754;29;20229;-66
2023/04/09 10:54:48;;;;;;;16.65;14.68;;;23.60;99.90;;;;;;4854282;29;20286;-66
2023/04/09 10:57:19;;;;;;;24.23;17.23;;;24.10;99.90;;;;;;4855920;29;20238;-65
2023/04/09 10:59:49;;;;;;;23.17;16.92;;;24.50;99.90;;;;;;4853263;29;20274;-65
2023/04/09 11:02:48;;;;;;;20.98;16.75;;;23.90;99.90;;;;;;4839570;29;20289;-66
2023/04/09 11:05:26;;;;;;;18.80;15.00;;;23.60;99.90;;;;;;4804540;29;20256;-66
2023/04/09 11:08:01;;;;;;;16.85;14.48;;;23.60;99.90;;;;;;4818798;29;20203;-66
2023/04/09 11:10:29;;;;;;;17.52;14.55;;;23.90;99.90;;;;;;4832075;29;20229;-66
2023/04/09 11:12:59;;;;;;;19.75;15.48;;;23.80;99.90;;;;;;4838445;29;21500;-65
2023/04/09 11:15:28;;;;;;;20.77;16.15;;;23.50;99.90;;;;;;4838168;29;20281;-66
2023/04/09 11:17:57;;;;;;;17.17;14.90;;;23.30;99.90;;;;;;4830117;29;20237;-65
2023/04/09 11:20:26;;;;;;;14.70;13.00;;;23.40;99.90;;;;;;4832764;29;20231;-67
2023/04/09 11:22:55;;;;;;;12.68;11.35;;;23.80;99.90;;;;;;4829052;29;20302;-66
2023/04/09 11:25:25;;;;;;;18.80;14.40;;;24.20;99.90;;;;;;4834916;29;20252;-67
2023/04/09 11:27:54;;;;;;;18.75;15.30;;;24.30;99.90;;;;;;4832271;29;20234;-66
2023/04/09 11:30:24;;;;;;;19.67;16.08;;;23.70;99.90;;;;;;4837790;29;20247;-67
2023/04/09 11:32:52;;;;;;;21.38;16.13;;;23.10;99.90;;;;;;4835279;29;20318;-66
2023/04/09 11:35:22;;;;;;;18.13;14.57;;;22.40;99.90;;;;;;4835509;29;20234;-66
2023/04/09 11:37:51;;;;;;;17.77;13.85;;;22.20;99.90;;;;;;4829981;29;21547;-66
2023/04/09 11:40:20;;;;;;;17.85;14.18;;;22.70;99.90;;;;;;4830734;29;20207;-65
2023/04/09 11:42:50;;;;;;;16.03;13.63;;;22.80;99.90;;;;;;4835027;29;20257;-65
2023/04/09 11:45:20;;;;;;;17.33;14.27;;;22.40;99.90;;;;;;4832570;29;20553;-65
2023/04/09 11:47:50;;;;;;;18.53;14.70;;;21.10;99.90;;;;;;4830966;29;20219;-64
2023/04/09 11:50:19;;;;;;;21.97;15.77;;;20.50;99.90;;;;;;4831649;29;20249;-65
2023/04/09 11:52:49;;;;;;;22.30;15.37;;;20.80;99.90;;;;;;4832750;29;20254;-65
2023/04/09 11:55:25;;;;;;;14.87;12.50;;;21.20;99.90;;;;;;4835715;29;20205;-66
2023/04/09 11:57:56;;;;;;;14.33;12.20;;;21.10;99.90;;;;;;4834586;29;20231;-65
2023/04/09 12:00:25;;;;;;;19.13;14.00;;;21.20;99.90;;;;;;4839908;29;20237;-65
2023/04/09 12:03:02;;;;;;;20.00;14.63;;;21.50;99.90;;;;;;4854257;29;20233;-65
2023/04/09 12:05:34;;;;;;;20.63;14.60;;;21.40;99.90;;;;;;4855980;29;20237;-65
2023/04/09 12:08:05;;;;;;;17.03;14.03;;;21.80;99.90;;;;;;4834144;29;20603;-65
2023/04/09 12:10:34;;;;;;;19.70;14.17;;;22.10;99.90;;;;;;4850242;29;20234;-65
2023/04/09 12:13:03;;;;;;;20.23;15.27;;;22.30;99.90;;;;;;4849991;29;20233;-65
2023/04/09 12:15:33;;;;;;;18.50;13.83;;;22.00;99.90;;;;;;4857449;29;20221;-65
2023/04/09 12:18:03;;;;;;;21.27;15.90;;;21.70;99.90;;;;;;4852832;29;20230;-64
2023/04/09 12:20:35;;;;;;;20.83;16.23;;;21.70;99.90;;;;;;4850695;29;20257;-64
2023/04/09 12:23:04;;;;;;;25.90;16.63;;;21.60;99.90;;;;;;4850237;29;20285;-64
2023/04/09 12:25:36;;;;;;;20.57;16.17;;;21.40;99.90;;;;;;4847814;29;20205;-64
2023/04/09 12:28:06;;;;;;;24.57;17.40;;;21.40;99.90;;;;;;4849632;29;20268;-63
2023/04/09 12:30:35;;;;;;;36.47;17.97;;;21.30;99.90;;;;;;4850338;29;20234;-62
2023/04/09 12:33:05;;;;;;;23.07;17.07;;;21.00;99.90;;;;;;4854479;29;20223;-61
2023/04/09 12:35:37;;;;;;;21.43;16.53;;;21.10;99.90;;;;;;4857195;29;20358;-59
2023/04/09 12:38:06;;;;;;;19.87;14.97;;;20.20;99.90;;;;;;4851237;29;20235;-61
2023/04/09 12:40:35;;;;;;;21.73;14.80;;;19.90;99.90;;;;;;4856122;29;20306;-61
2023/04/09 12:43:04;;;;;;;19.97;14.47;;;19.60;99.90;;;;;;4853412;29;20659;-61
2023/04/09 12:45:32;;;;;;;18.43;14.10;;;19.20;99.90;;;;;;4851954;29;20307;-61